sensor_id;sensor_type;location;lat;lon;timestamp;pressure;altitude;pressure_sealevel;temperature;humidity
29903;BME280;30288;50.514;9.678;2023-03-25T00:01:07;97718.03;;;7.83;100.00
29903;BME280;30288;50.514;9.678;2023-03-25T00:03:15;97723.59;;;7.91;100.00
29903;BME280;30288;50.514;9.678;2023-03-25T00:05:21;97728.59;;;7.91;100.00
29903;BME280;30288;50.514;9.678;2023-03-25T00:07:26;97730.31;;;7.89;100.00
29903;BME280;30288;50.514;9.678;2023-03-25T00:09:33;97726.13;;;7.90;100.00
29903;BME280;30288;50.514;9.678;2023-03-25T00:11:38;97736.88;;;7.93;100.00
29903;BME280;30288;50.514;9.678;2023-03-25T00:13:44;97733.19;;;8.04;100.00
29903;BME280;30288;50.514;9.678;2023-03-25T00:15:50;97741.28;;;8.12;100.00
29903;BME280;30288;50.514;9.678;2023-03-25T00:18:02;97734.53;;;8.14;100.00
29903;BME280;30288;50.514;9.678;2023-03-25T00:20:09;97731.94;;;8.17;100.00
29903;BME280;30288;50.514;9.678;2023-03-25T00:22:16;97730.78;;;8.25;100.00
29903;BME280;30288;50.514;9.678;2023-03-25T00:24:21;97737.97;;;8.36;100.00
29903;BME280;30288;50.514;9.678;2023-03-25T00:26:27;97738.84;;;8.35;100.00
29903;BME280;30288;50.514;9.678;2023-03-25T00:28:36;97735.47;;;8.36;100.00
29903;BME280;30288;50.514;9.678;2023-03-25T00:30:43;97730.34;;;8.39;100.00
29903;BME280;30288;50.514;9.678;2023-03-25T00:32:49;97713.75;;;8.35;100.00
29903;BME280;30288;50.514;9.678;2023-03-25T00:34:57;97722.25;;;8.31;100.00
29903;BME280;30288;50.514;9.678;2023-03-25T00:37:02;97708.22;;;8.25;100.00
29903;BME280;30288;50.514;9.678;2023-03-25T00:39:07;97712.53;;;8.22;100.00
29903;BME280;30288;50.514;9.678;2023-03-25T00:41:16;97706.06;;;8.15;100.00
29903;BME280;30288;50.514;9.678;2023-03-25T00:43:24;97706.84;;;8.17;100.00
29903;BME280;30288;50.514;9.678;2023-03-25T00:45:32;97703.09;;;8.04;100.00
29903;BME280;30288;50.514;9.678;2023-03-25T00:47:37;97698.97;;;8.03;100.00
29903;BME280;30288;50.514;9.678;2023-03-25T00:49:43;97697.38;;;8.00;100.00
29903;BME280;30288;50.514;9.678;2023-03-25T00:51:51;97703.22;;;8.01;100.00
29903;BME280;30288;50.514;9.678;2023-03-25T00:53:58;97711.53;;;8.03;100.00
29903;BME280;30288;50.514;9.678;2023-03-25T00:56:06;97712.38;;;8.02;100.00
29903;BME280;30288;50.514;9.678;2023-03-25T00:58:11;97706.59;;;8.00;100.00
29903;BME280;30288;50.514;9.678;2023-03-25T01:00:17;97714.25;;;7.95;100.00
29903;BME280;30288;50.514;9.678;2023-03-25T01:02:23;97716.25;;;7.85;100.00
29903;BME280;30288;50.514;9.678;2023-03-25T01:04:29;97717.13;;;7.84;100.00
29903;BME280;30288;50.514;9.678;2023-03-25T01:06:35;97710.38;;;7.86;100.00
29903;BME280;30288;50.514;9.678;2023-03-25T01:08:45;97708.53;;;7.91;100.00
29903;BME280;30288;50.514;9.678;2023-03-25T01:10:52;97713.38;;;7.98;100.00
29903;BME280;30288;50.514;9.678;2023-03-25T01:12:57;97706.50;;;8.03;100.00
29903;BME280;30288;50.514;9.678;2023-03-25T01:15:03;97715.78;;;7.99;100.00
29903;BME280;30288;50.514;9.678;2023-03-25T01:17:09;97716.81;;;7.93;100.00
29903;BME280;30288;50.514;9.678;2023-03-25T01:19:15;97703.50;;;7.93;100.00
29903;BME280;30288;50.514;9.678;2023-03-25T01:21:20;97710.19;;;7.93;100.00
29903;BME280;30288;50.514;9.678;2023-03-25T01:23:26;97701.06;;;7.90;100.00
29903;BME280;30288;50.514;9.678;2023-03-25T01:25:33;97699.44;;;7.89;100.00
29903;BME280;30288;50.514;9.678;2023-03-25T01:27:39;97702.09;;;7.84;100.00
29903;BME280;30288;50.514;9.678;2023-03-25T01:29:44;97707.22;;;7.81;100.00
29903;BME280;30288;50.514;9.678;2023-03-25T01:31:49;97715.72;;;7.77;100.00
29903;BME280;30288;50.514;9.678;2023-03-25T01:33:55;97708.84;;;7.82;100.00
29903;BME280;30288;50.514;9.678;2023-03-25T01:36:01;97712.94;;;7.85;100.00
29903;BME280;30288;50.514;9.678;2023-03-25T01:38:10;97705.38;;;7.86;100.00
29903;BME280;30288;50.514;9.678;2023-03-25T01:40:20;97719.56;;;7.87;100.00
29903;BME280;30288;50.514;9.678;2023-03-25T01:42:27;97718.03;;;7.83;100.00
29903;BME280;30288;50.514;9.678;2023-03-25T01:45:12;97730.56;;;7.83;100.00
29903;BME280;30288;50.514;9.678;2023-03-25T01:47:18;97726.84;;;7.93;100.00
29903;BME280;30288;50.514;9.678;2023-03-25T01:49:26;97717.63;;;7.94;100.00
29903;BME280;30288;50.514;9.678;2023-03-25T01:51:38;97730.00;;;7.99;100.00
29903;BME280;30288;50.514;9.678;2023-03-25T01:53:45;97725.94;;;7.96;100.00
29903;BME280;30288;50.514;9.678;2023-03-25T01:55:51;97717.63;;;7.94;100.00
29903;BME280;30288;50.514;9.678;2023-03-25T01:58:04;97729.47;;;7.90;100.00
29903;BME280;30288;50.514;9.678;2023-03-25T02:00:13;97718.56;;;7.91;100.00
29903;BME280;30288;50.514;9.678;2023-03-25T02:02:22;97712.22;;;7.81;100.00
29903;BME280;30288;50.514;9.678;2023-03-25T02:04:46;97711.88;;;7.67;100.00
29903;BME280;30288;50.514;9.678;2023-03-25T02:07:00;97705.31;;;7.63;100.00
29903;BME280;30288;50.514;9.678;2023-03-25T02:09:11;97701.34;;;7.56;100.00
29903;BME280;30288;50.514;9.678;2023-03-25T02:11:17;97703.41;;;7.45;100.00
29903;BME280;30288;50.514;9.678;2023-03-25T02:13:25;97709.63;;;7.33;100.00
29903;BME280;30288;50.514;9.678;2023-03-25T02:15:39;97713.75;;;7.34;100.00
29903;BME280;30288;50.514;9.678;2023-03-25T02:18:02;97702.25;;;7.29;100.00
29903;BME280;30288;50.514;9.678;2023-03-25T02:23:32;97702.63;;;7.17;100.00
29903;BME280;30288;50.514;9.678;2023-03-25T02:26:03;97695.06;;;7.18;100.00
29903;BME280;30288;50.514;9.678;2023-03-25T02:28:19;97696.00;;;7.16;100.00
29903;BME280;30288;50.514;9.678;2023-03-25T02:31:00;97687.00;;;7.09;100.00
29903;BME280;30288;50.514;9.678;2023-03-25T02:33:52;97686.94;;;7.12;100.00
29903;BME280;30288;50.514;9.678;2023-03-25T02:36:57;97676.25;;;7.07;100.00
29903;BME280;30288;50.514;9.678;2023-03-25T02:39:11;97692.28;;;7.01;100.00
29903;BME280;30288;50.514;9.678;2023-03-25T02:41:23;97691.56;;;6.97;100.00
29903;BME280;30288;50.514;9.678;2023-03-25T02:43:33;97689.13;;;6.94;100.00
29903;BME280;30288;50.514;9.678;2023-03-25T02:45:42;97693.00;;;7.04;100.00
29903;BME280;30288;50.514;9.678;2023-03-25T02:47:54;97689.72;;;7.02;100.00
29903;BME280;30288;50.514;9.678;2023-03-25T02:50:06;97686.53;;;6.97;100.00
29903;BME280;30288;50.514;9.678;2023-03-25T02:52:16;97683.16;;;6.98;100.00
29903;BME280;30288;50.514;9.678;2023-03-25T02:54:28;97680.78;;;6.94;100.00
29903;BME280;30288;50.514;9.678;2023-03-25T02:56:38;97688.44;;;6.89;100.00
29903;BME280;30288;50.514;9.678;2023-03-25T02:58:46;97678.63;;;6.83;100.00
29903;BME280;30288;50.514;9.678;2023-03-25T03:00:53;97682.00;;;6.82;100.00
29903;BME280;30288;50.514;9.678;2023-03-25T03:03:02;97676.31;;;6.77;100.00
29903;BME280;30288;50.514;9.678;2023-03-25T03:05:22;97671.34;;;6.76;100.00
29903;BME280;30288;50.514;9.678;2023-03-25T03:07:32;97675.66;;;6.71;100.00
29903;BME280;30288;50.514;9.678;2023-03-25T03:09:45;97677.44;;;6.67;100.00
29903;BME280;30288;50.514;9.678;2023-03-25T03:12:14;97678.13;;;6.72;100.00
29903;BME280;30288;50.514;9.678;2023-03-25T03:14:35;97665.34;;;6.81;100.00
29903;BME280;30288;50.514;9.678;2023-03-25T03:16:47;97663.63;;;6.83;100.00
29903;BME280;30288;50.514;9.678;2023-03-25T03:19:02;97668.25;;;6.95;100.00
29903;BME280;30288;50.514;9.678;2023-03-25T03:21:14;97664.69;;;7.02;100.00
29903;BME280;30288;50.514;9.678;2023-03-25T03:23:27;97666.06;;;7.13;100.00
29903;BME280;30288;50.514;9.678;2023-03-25T03:25:47;97667.47;;;7.20;100.00
29903;BME280;30288;50.514;9.678;2023-03-25T03:27:57;97665.53;;;7.28;100.00
29903;BME280;30288;50.514;9.678;2023-03-25T03:30:10;97667.28;;;7.26;100.00
29903;BME280;30288;50.514;9.678;2023-03-25T03:32:21;97674.94;;;7.21;100.00
29903;BME280;30288;50.514;9.678;2023-03-25T03:34:37;97674.22;;;7.18;100.00
29903;BME280;30288;50.514;9.678;2023-03-25T03:36:49;97669.41;;;7.12;100.00
29903;BME280;30288;50.514;9.678;2023-03-25T03:39:00;97674.63;;;7.04;100.00
29903;BME280;30288;50.514;9.678;2023-03-25T03:41:16;97674.72;;;7.02;100.00
29903;BME280;30288;50.514;9.678;2023-03-25T03:43:29;97677.94;;;7.06;100.00
29903;BME280;30288;50.514;9.678;2023-03-25T03:45:40;97663.13;;;6.98;100.00
29903;BME280;30288;50.514;9.678;2023-03-25T03:47:52;97664.78;;;6.99;100.00
29903;BME280;30288;50.514;9.678;2023-03-25T03:50:03;97661.50;;;6.97;100.00
29903;BME280;30288;50.514;9.678;2023-03-25T03:52:14;97663.06;;;7.01;100.00
29903;BME280;30288;50.514;9.678;2023-03-25T03:54:25;97664.59;;;7.06;100.00
29903;BME280;30288;50.514;9.678;2023-03-25T03:56:39;97666.22;;;7.07;100.00
29903;BME280;30288;50.514;9.678;2023-03-25T03:58:50;97669.59;;;7.06;100.00
29903;BME280;30288;50.514;9.678;2023-03-25T04:01:05;97667.88;;;7.08;100.00
29903;BME280;30288;50.514;9.678;2023-03-25T04:03:17;97672.97;;;7.04;100.00
29903;BME280;30288;50.514;9.678;2023-03-25T04:05:27;97667.88;;;7.08;100.00
29903;BME280;30288;50.514;9.678;2023-03-25T04:07:38;97663.47;;;7.14;100.00
29903;BME280;30288;50.514;9.678;2023-03-25T04:09:53;97667.66;;;7.14;100.00
29903;BME280;30288;50.514;9.678;2023-03-25T04:12:13;97654.44;;;7.10;100.00
29903;BME280;30288;50.514;9.678;2023-03-25T04:14:19;97667.78;;;7.11;100.00
29903;BME280;30288;50.514;9.678;2023-03-25T04:16:24;97657.78;;;7.09;100.00
29903;BME280;30288;50.514;9.678;2023-03-25T04:18:30;97666.91;;;7.12;100.00
29903;BME280;30288;50.514;9.678;2023-03-25T04:20:35;97657.66;;;7.14;100.00
29903;BME280;30288;50.514;9.678;2023-03-25T04:22:46;97649.38;;;7.12;100.00
29903;BME280;30288;50.514;9.678;2023-03-25T04:24:52;97645.28;;;7.09;100.00
29903;BME280;30288;50.514;9.678;2023-03-25T04:27:01;97651.09;;;7.10;100.00
29903;BME280;30288;50.514;9.678;2023-03-25T04:29:09;97650.28;;;7.09;100.00
29903;BME280;30288;50.514;9.678;2023-03-25T04:31:16;97664.41;;;7.12;100.00
29903;BME280;30288;50.514;9.678;2023-03-25T04:33:21;97660.16;;;7.14;100.00
29903;BME280;30288;50.514;9.678;2023-03-25T04:35:26;97652.56;;;7.17;100.00
29903;BME280;30288;50.514;9.678;2023-03-25T04:37:34;97649.16;;;7.18;100.00
29903;BME280;30288;50.514;9.678;2023-03-25T04:39:39;97657.75;;;7.11;100.00
29903;BME280;30288;50.514;9.678;2023-03-25T04:41:44;97652.75;;;7.11;100.00
29903;BME280;30288;50.514;9.678;2023-03-25T04:43:49;97656.03;;;7.13;100.00
29903;BME280;30288;50.514;9.678;2023-03-25T04:45:57;97647.63;;;7.14;100.00
29903;BME280;30288;50.514;9.678;2023-03-25T04:48:04;97647.44;;;7.20;100.00
29903;BME280;30288;50.514;9.678;2023-03-25T04:50:20;97649.09;;;7.21;100.00
29903;BME280;30288;50.514;9.678;2023-03-25T04:52:25;97675.78;;;7.22;100.00
29903;BME280;30288;50.514;9.678;2023-03-25T04:54:30;97675.78;;;7.22;100.00
29903;BME280;30288;50.514;9.678;2023-03-25T04:56:36;97675.00;;;7.20;100.00
29903;BME280;30288;50.514;9.678;2023-03-25T04:58:41;97677.50;;;7.20;100.00
29903;BME280;30288;50.514;9.678;2023-03-25T05:00:49;97675.84;;;7.19;100.00
29903;BME280;30288;50.514;9.678;2023-03-25T05:02:58;97670.78;;;7.22;100.00
29903;BME280;30288;50.514;9.678;2023-03-25T05:05:04;97671.69;;;7.18;100.00
29903;BME280;30288;50.514;9.678;2023-03-25T05:07:09;97679.31;;;7.15;100.00
29903;BME280;30288;50.514;9.678;2023-03-25T05:09:16;97680.97;;;7.16;100.00
29903;BME280;30288;50.514;9.678;2023-03-25T05:11:23;97671.84;;;7.13;100.00
29903;BME280;30288;50.514;9.678;2023-03-25T05:13:28;97683.50;;;7.14;100.00
29903;BME280;30288;50.514;9.678;2023-03-25T05:15:35;97690.25;;;7.12;100.00
29903;BME280;30288;50.514;9.678;2023-03-25T05:17:42;97696.16;;;7.10;100.00
29903;BME280;30288;50.514;9.678;2023-03-25T05:19:50;97693.69;;;7.08;100.00
29903;BME280;30288;50.514;9.678;2023-03-25T05:21:56;97692.22;;;7.02;100.00
29903;BME280;30288;50.514;9.678;2023-03-25T05:24:04;97702.41;;;6.96;100.00
29903;BME280;30288;50.514;9.678;2023-03-25T05:26:11;97710.03;;;6.93;100.00
29903;BME280;30288;50.514;9.678;2023-03-25T05:28:17;97706.63;;;6.94;100.00
29903;BME280;30288;50.514;9.678;2023-03-25T05:30:22;97713.28;;;6.95;100.00
29903;BME280;30288;50.514;9.678;2023-03-25T05:32:33;97714.28;;;6.90;100.00
29903;BME280;30288;50.514;9.678;2023-03-25T05:34:42;97726.03;;;6.88;100.00
29903;BME280;30288;50.514;9.678;2023-03-25T05:36:50;97727.00;;;6.84;100.00
29903;BME280;30288;50.514;9.678;2023-03-25T05:38:55;97730.22;;;6.87;100.00
29903;BME280;30288;50.514;9.678;2023-03-25T05:41:00;97729.53;;;6.82;100.00
29903;BME280;30288;50.514;9.678;2023-03-25T05:43:06;97730.50;;;6.78;100.00
29903;BME280;30288;50.514;9.678;2023-03-25T05:45:11;97734.78;;;6.75;100.00
29903;BME280;30288;50.514;9.678;2023-03-25T05:47:19;97732.38;;;6.70;100.00
29903;BME280;30288;50.514;9.678;2023-03-25T05:49:25;97729.22;;;6.65;100.00
29903;BME280;30288;50.514;9.678;2023-03-25T05:51:33;97738.41;;;6.65;100.00
29903;BME280;30288;50.514;9.678;2023-03-25T05:53:42;97736.66;;;6.67;100.00
29903;BME280;30288;50.514;9.678;2023-03-25T05:55:51;97743.97;;;6.74;100.00
29903;BME280;30288;50.514;9.678;2023-03-25T05:57:56;97749.81;;;6.73;100.00
29903;BME280;30288;50.514;9.678;2023-03-25T06:00:03;97746.47;;;6.74;100.00
29903;BME280;30288;50.514;9.678;2023-03-25T06:02:14;97748.00;;;6.78;100.00
29903;BME280;30288;50.514;9.678;2023-03-25T06:04:21;97753.78;;;6.80;100.00
29903;BME280;30288;50.514;9.678;2023-03-25T06:06:27;97754.59;;;6.81;100.00
29903;BME280;30288;50.514;9.678;2023-03-25T06:08:33;97754.53;;;6.84;100.00
29903;BME280;30288;50.514;9.678;2023-03-25T06:10:41;97753.59;;;6.86;100.00
29903;BME280;30288;50.514;9.678;2023-03-25T06:12:47;97746.78;;;6.91;100.00
29903;BME280;30288;50.514;9.678;2023-03-25T06:14:54;97745.72;;;6.98;100.00
29903;BME280;30288;50.514;9.678;2023-03-25T06:16:59;97746.63;;;6.97;100.00
29903;BME280;30288;50.514;9.678;2023-03-25T06:19:04;97740.81;;;6.95;100.00
29903;BME280;30288;50.514;9.678;2023-03-25T06:21:11;97746.63;;;6.97;100.00
29903;BME280;30288;50.514;9.678;2023-03-25T06:23:17;97736.66;;;6.94;100.00
29903;BME280;30288;50.514;9.678;2023-03-25T06:25:23;97738.34;;;6.94;100.00
29903;BME280;30288;50.514;9.678;2023-03-25T06:27:32;97748.34;;;6.95;100.00
29903;BME280;30288;50.514;9.678;2023-03-25T06:29:41;97751.63;;;6.97;100.00
29903;BME280;30288;50.514;9.678;2023-03-25T06:31:48;97747.22;;;7.04;100.00
29903;BME280;30288;50.514;9.678;2023-03-25T06:33:55;97752.06;;;7.10;100.00
29903;BME280;30288;50.514;9.678;2023-03-25T06:36:01;97760.13;;;7.20;100.00
29903;BME280;30288;50.514;9.678;2023-03-25T06:38:06;97752.50;;;7.23;100.00
29903;BME280;30288;50.514;9.678;2023-03-25T06:40:29;97762.38;;;7.27;100.00
29903;BME280;30288;50.514;9.678;2023-03-25T06:42:40;97760.69;;;7.28;100.00
29903;BME280;30288;50.514;9.678;2023-03-25T06:45:05;97768.81;;;7.36;100.00
29903;BME280;30288;50.514;9.678;2023-03-25T06:47:16;97766.91;;;7.44;100.00
29903;BME280;30288;50.514;9.678;2023-03-25T06:49:24;97775.16;;;7.46;100.00
29903;BME280;30288;50.514;9.678;2023-03-25T06:51:31;97785.19;;;7.46;100.00
29903;BME280;30288;50.514;9.678;2023-03-25T06:53:36;97782.56;;;7.51;100.00
29903;BME280;30288;50.514;9.678;2023-03-25T06:55:41;97782.75;;;7.44;100.00
29903;BME280;30288;50.514;9.678;2023-03-25T06:57:53;97782.94;;;7.38;100.00
29903;BME280;30288;50.514;9.678;2023-03-25T06:59:58;97780.66;;;7.31;100.00
29903;BME280;30288;50.514;9.678;2023-03-25T07:02:03;97781.56;;;7.28;100.00
29903;BME280;30288;50.514;9.678;2023-03-25T07:04:08;97782.50;;;7.26;100.00
29903;BME280;30288;50.514;9.678;2023-03-25T07:06:16;97794.22;;;7.24;100.00
29903;BME280;30288;50.514;9.678;2023-03-25T07:08:22;97790.59;;;7.34;100.00
29903;BME280;30288;50.514;9.678;2023-03-25T07:10:27;97788.66;;;7.42;100.00
29903;BME280;30288;50.514;9.678;2023-03-25T07:12:33;97790.00;;;7.52;100.00
29903;BME280;30288;50.514;9.678;2023-03-25T07:14:41;97802.47;;;7.55;100.00
29903;BME280;30288;50.514;9.678;2023-03-25T07:16:47;97789.53;;;7.67;100.00
29903;BME280;30288;50.514;9.678;2023-03-25T07:18:53;97795.91;;;7.77;100.00
29903;BME280;30288;50.514;9.678;2023-03-25T07:21:00;97804.09;;;7.82;100.00
29903;BME280;30288;50.514;9.678;2023-03-25T07:23:05;97798.06;;;7.88;100.00
29903;BME280;30288;50.514;9.678;2023-03-25T07:25:11;97802.16;;;7.90;100.00
29903;BME280;30288;50.514;9.678;2023-03-25T07:27:17;97797.97;;;7.91;100.00
29903;BME280;30288;50.514;9.678;2023-03-25T07:29:31;97815.66;;;7.86;100.00
29903;BME280;30288;50.514;9.678;2023-03-25T07:31:40;97803.50;;;8.01;100.00
29903;BME280;30288;50.514;9.678;2023-03-25T07:33:45;97794.00;;;8.10;100.00
29903;BME280;30288;50.514;9.678;2023-03-25T07:35:50;97791.75;;;8.03;100.00
29903;BME280;30288;50.514;9.678;2023-03-25T07:37:56;97800.03;;;8.05;100.00
29903;BME280;30288;50.514;9.678;2023-03-25T07:40:02;97804.38;;;8.00;100.00
29903;BME280;30288;50.514;9.678;2023-03-25T07:42:07;97803.50;;;8.01;100.00
29903;BME280;30288;50.514;9.678;2023-03-25T07:44:34;97797.03;;;7.93;100.00
29903;BME280;30288;50.514;9.678;2023-03-25T07:46:43;97800.31;;;7.96;100.00
29903;BME280;30288;50.514;9.678;2023-03-25T07:48:49;97803.66;;;7.96;100.00
29903;BME280;30288;50.514;9.678;2023-03-25T07:50:54;97822.22;;;7.90;100.00
29903;BME280;30288;50.514;9.678;2023-03-25T07:52:59;97811.19;;;7.96;100.00
29903;BME280;30288;50.514;9.678;2023-03-25T07:55:06;97806.78;;;8.03;100.00
29903;BME280;30288;50.514;9.678;2023-03-25T07:57:12;97810.16;;;8.02;100.00
29903;BME280;30288;50.514;9.678;2023-03-25T07:59:17;97811.59;;;8.09;100.00
29903;BME280;30288;50.514;9.678;2023-03-25T08:01:22;97808.94;;;8.13;100.00
29903;BME280;30288;50.514;9.678;2023-03-25T08:03:30;97796.34;;;8.15;100.00
29903;BME280;30288;50.514;9.678;2023-03-25T08:05:36;97794.41;;;8.23;100.00
29903;BME280;30288;50.514;9.678;2023-03-25T08:07:41;97800.06;;;8.29;100.00
29903;BME280;30288;50.514;9.678;2023-03-25T08:09:47;97800.69;;;8.36;100.00
29903;BME280;30288;50.514;9.678;2023-03-25T08:11:52;97797.75;;;8.48;100.00
29903;BME280;30288;50.514;9.678;2023-03-25T08:13:58;97806.13;;;8.47;100.00
29903;BME280;30288;50.514;9.678;2023-03-25T08:16:10;97802.00;;;8.46;100.00
29903;BME280;30288;50.514;9.678;2023-03-25T08:18:16;97799.31;;;8.51;100.00
29903;BME280;30288;50.514;9.678;2023-03-25T08:20:24;97800.06;;;8.54;100.00
29903;BME280;30288;50.514;9.678;2023-03-25T08:22:29;97804.28;;;8.52;100.00
29903;BME280;30288;50.514;9.678;2023-03-25T08:24:34;97806.13;;;8.47;100.00
29903;BME280;30288;50.514;9.678;2023-03-25T08:26:39;97803.84;;;8.41;100.00
29903;BME280;30288;50.514;9.678;2023-03-25T08:28:44;97805.59;;;8.39;100.00
29903;BME280;30288;50.514;9.678;2023-03-25T08:30:52;97805.47;;;8.42;100.00
29903;BME280;30288;50.514;9.678;2023-03-25T08:32:59;97812.03;;;8.46;100.00
29903;BME280;30288;50.514;9.678;2023-03-25T08:35:05;97805.97;;;8.52;100.00
29903;BME280;30288;50.514;9.678;2023-03-25T08:37:14;97804.28;;;8.52;100.00
29903;BME280;30288;50.514;9.678;2023-03-25T08:39:19;97795.75;;;8.58;100.00
29903;BME280;30288;50.514;9.678;2023-03-25T08:41:31;97798.28;;;8.56;100.00
29903;BME280;30288;50.514;9.678;2023-03-25T08:43:36;97787.19;;;8.63;100.00
29903;BME280;30288;50.514;9.678;2023-03-25T08:45:41;97787.72;;;8.71;100.00
29903;BME280;30288;50.514;9.678;2023-03-25T08:47:46;97802.50;;;8.79;100.00
29903;BME280;30288;50.514;9.678;2023-03-25T08:49:51;97797.66;;;8.98;100.00
29903;BME280;30288;50.514;9.678;2023-03-25T08:51:57;97794.03;;;9.05;100.00
29903;BME280;30288;50.514;9.678;2023-03-25T08:54:05;97800.41;;;9.13;100.00
29903;BME280;30288;50.514;9.678;2023-03-25T08:56:11;97793.25;;;9.26;100.00
29903;BME280;30288;50.514;9.678;2023-03-25T08:58:16;97784.28;;;9.19;100.00
29903;BME280;30288;50.514;9.678;2023-03-25T09:00:22;97785.47;;;9.32;100.00
29903;BME280;30288;50.514;9.678;2023-03-25T09:02:29;97785.38;;;9.35;100.00
29903;BME280;30288;50.514;9.678;2023-03-25T09:04:36;97788.38;;;9.43;100.00
29903;BME280;30288;50.514;9.678;2023-03-25T09:06:42;97782.78;;;9.58;100.00
29903;BME280;30288;50.514;9.678;2023-03-25T09:08:49;97788.59;;;9.81;100.00
29903;BME280;30288;50.514;9.678;2023-03-25T09:10:59;97787.75;;;9.80;100.00
29903;BME280;30288;50.514;9.678;2023-03-25T09:13:05;97780.16;;;9.82;100.00
29903;BME280;30288;50.514;9.678;2023-03-25T09:15:11;97783.69;;;9.78;100.00
29903;BME280;30288;50.514;9.678;2023-03-25T09:17:16;97774.91;;;9.88;100.00
29903;BME280;30288;50.514;9.678;2023-03-25T09:19:22;97777.53;;;9.85;100.00
29903;BME280;30288;50.514;9.678;2023-03-25T09:21:27;97780.16;;;9.82;100.00
29903;BME280;30288;50.514;9.678;2023-03-25T09:23:32;97776.66;;;9.86;100.00
29903;BME280;30288;50.514;9.678;2023-03-25T09:25:37;97772.75;;;9.99;100.00
29903;BME280;30288;50.514;9.678;2023-03-25T09:27:45;97760.69;;;10.07;100.00
29903;BME280;30288;50.514;9.678;2023-03-25T09:29:51;97763.19;;;10.27;100.00
29903;BME280;30288;50.514;9.678;2023-03-25T09:31:56;97765.53;;;10.32;100.00
29903;BME280;30288;50.514;9.678;2023-03-25T09:34:02;97767.47;;;10.05;100.00
29903;BME280;30288;50.514;9.678;2023-03-25T09:36:08;97763.06;;;9.90;100.00
29903;BME280;30288;50.514;9.678;2023-03-25T09:38:14;97764.84;;;9.88;100.00
29903;BME280;30288;50.514;9.678;2023-03-25T09:40:20;97756.28;;;9.92;100.00
29903;BME280;30288;50.514;9.678;2023-03-25T09:42:36;97749.91;;;10.03;100.00
29903;BME280;30288;50.514;9.678;2023-03-25T09:44:54;97755.13;;;9.99;100.00
29903;BME280;30288;50.514;9.678;2023-03-25T09:47:11;97746.91;;;9.95;100.00
29903;BME280;30288;50.514;9.678;2023-03-25T09:49:21;97748.22;;;10.04;100.00
29903;BME280;30288;50.514;9.678;2023-03-25T09:51:30;97756.38;;;9.89;100.00
29903;BME280;30288;50.514;9.678;2023-03-25T09:53:44;97751.50;;;9.86;100.00
29903;BME280;30288;50.514;9.678;2023-03-25T09:55:51;97738.50;;;9.96;100.00
29903;BME280;30288;50.514;9.678;2023-03-25T09:58:03;97745.03;;;10.21;100.00
29903;BME280;30288;50.514;9.678;2023-03-25T10:00:17;97747.91;;;10.32;100.00
29903;BME280;30288;50.514;9.678;2023-03-25T10:02:32;97731.75;;;10.56;100.00
29903;BME280;30288;50.514;9.678;2023-03-25T10:05:03;97732.50;;;10.77;100.00
29903;BME280;30288;50.514;9.678;2023-03-25T10:07:39;97728.13;;;10.99;100.00
29903;BME280;30288;50.514;9.678;2023-03-25T10:09:53;97735.31;;;11.25;100.00
29903;BME280;30288;50.514;9.678;2023-03-25T10:12:23;97729.81;;;11.17;100.00
29903;BME280;30288;50.514;9.678;2023-03-25T10:14:38;97740.13;;;10.94;100.00
29903;BME280;30288;50.514;9.678;2023-03-25T10:17:01;97740.53;;;10.47;100.00
29903;BME280;30288;50.514;9.678;2023-03-25T10:19:24;97749.88;;;10.25;100.00
29903;BME280;30288;50.514;9.678;2023-03-25T10:21:38;97743.00;;;10.29;100.00
29903;BME280;30288;50.514;9.678;2023-03-25T10:23:51;97750.50;;;10.10;100.00
29903;BME280;30288;50.514;9.678;2023-03-25T10:26:04;97751.13;;;9.95;100.00
29903;BME280;30288;50.514;9.678;2023-03-25T10:28:18;97764.63;;;9.72;100.00
29903;BME280;30288;50.514;9.678;2023-03-25T10:30:30;97774.59;;;9.53;100.00
29903;BME280;30288;50.514;9.678;2023-03-25T10:32:42;97796.94;;;9.39;100.00
29903;BME280;30288;50.514;9.678;2023-03-25T10:34:50;97837.16;;;9.16;100.00
29903;BME280;30288;50.514;9.678;2023-03-25T10:36:58;97853.16;;;8.16;100.00
29903;BME280;30288;50.514;9.678;2023-03-25T10:39:15;97903.91;;;6.80;100.00
29903;BME280;30288;50.514;9.678;2023-03-25T10:41:26;97894.63;;;5.44;100.00
29903;BME280;30288;50.514;9.678;2023-03-25T10:43:37;97902.31;;;4.93;100.00
29903;BME280;30288;50.514;9.678;2023-03-25T10:45:43;97891.88;;;4.73;100.00
29903;BME280;30288;50.514;9.678;2023-03-25T10:47:58;97877.03;;;4.67;100.00
29903;BME280;30288;50.514;9.678;2023-03-25T10:50:13;97872.00;;;4.70;100.00
29903;BME280;30288;50.514;9.678;2023-03-25T10:52:18;97873.63;;;4.71;100.00
29903;BME280;30288;50.514;9.678;2023-03-25T10:54:28;97871.84;;;4.77;100.00
29903;BME280;30288;50.514;9.678;2023-03-25T10:56:41;97870.00;;;4.87;100.00
29903;BME280;30288;50.514;9.678;2023-03-25T10:58:51;97863.09;;;5.00;100.00
29903;BME280;30288;50.514;9.678;2023-03-25T11:00:58;97864.59;;;5.08;100.00
29903;BME280;30288;50.514;9.678;2023-03-25T11:03:13;97861.00;;;5.21;100.00
29903;BME280;30288;50.514;9.678;2023-03-25T11:05:23;97860.69;;;5.37;100.00
29903;BME280;30288;50.514;9.678;2023-03-25T11:07:34;97855.34;;;5.52;100.00
29903;BME280;30288;50.514;9.678;2023-03-25T11:09:40;97850.09;;;5.64;100.00
29903;BME280;30288;50.514;9.678;2023-03-25T11:11:45;97848.00;;;5.81;100.00
29903;BME280;30288;50.514;9.678;2023-03-25T11:13:55;97847.78;;;5.93;100.00
29903;BME280;30288;50.514;9.678;2023-03-25T11:16:03;97844.13;;;6.06;100.00
29903;BME280;30288;50.514;9.678;2023-03-25T11:18:18;97841.06;;;6.28;100.00
29903;BME280;30288;50.514;9.678;2023-03-25T11:20:28;97836.13;;;6.58;100.00
29903;BME280;30288;50.514;9.678;2023-03-25T11:22:36;97824.00;;;7.03;100.00
29903;BME280;30288;50.514;9.678;2023-03-25T11:24:44;97829.38;;;7.21;100.00
29903;BME280;30288;50.514;9.678;2023-03-25T11:26:52;97842.03;;;7.44;100.00
29903;BME280;30288;50.514;9.678;2023-03-25T11:29:03;97836.28;;;7.68;100.00